Terminal Aerodrome Forecast
Issued by NWS Shreveport, LA

Home | Current Version | Previous Version | Text Only | Print | Product List | Glossary On
Versions: 1 2 3 4 5 6 7 8 9 10 11 12 13
343
FTUS44 KSHV 201138
TAFTYR
TAF
KTYR 201138Z 2012/2112 12007KT P6SM -RA SCT080 OVC110
     FM201400 12008KT P6SM VCSH SCT080 OVC110
     FM201600 14011KT P6SM VCSH SCT025 BKN100
     FM201800 14011KT P6SM VCSH SCT035 BKN070
     FM202100 14011KT P6SM BKN050
     FM210000 14010KT P6SM BKN040
     FM210600 15009KT P6SM BKN020
     FM210800 16009KT P6SM BKN015=

USA.gov is the U.S. government's official web portal to all federal, state and local government web resources and services.